EDLV/NRN METAR and TAF weather

Enter ICAO airport designator
Station Type Date Time Source
EDLV METAR 2019/12/07 09:50 UTC NOAA

EDLV 070950Z 24010KT 9999 BKN023 09/07 Q1013


Station Type Date Time Source
EDLV Decoded METAR 2019/12/07 09:50 UTC NOAA

Niederrhein, Germany (EDLV) 51-36-09N 006-08-32E
Dec 07, 2019 - 04:50 AM EST / 2019.12.07 0950 UTC
Wind: from the WSW (240 degrees) at 12 MPH (10 KT):0
Visibility: greater than 7 mile(s):0
Sky conditions: mostly cloudy
Temperature: 48 F (9 C)
Dew Point: 44 F (7 C)
Relative Humidity: 87%
Pressure (altimeter): 29.91 in. Hg (1013 hPa)
ob: EDLV 070950Z 24010KT 9999 BKN023 09/07 Q1013
cycle: 10

Station Type Date Time Source
EDLV TAF 2019/12/07 23:03 UTC NOAA

TAF
AMD TAF
AMD EDLV 062350Z 0623/0718 CNL

Example: see airport list